createdAt,value
2022-08-11T00:01:30.907Z,101300.69
2022-08-11T00:06:32.147Z,101237.81
2022-08-11T00:11:34.944Z,101302.78
2022-08-11T00:16:35.257Z,101270.13
2022-08-11T00:22:05.330Z,101227.06
2022-08-11T00:27:53.926Z,101198.63
2022-08-11T00:39:10.466Z,101307.97
2022-08-11T00:44:26.104Z,101269.63
2022-08-11T00:49:34.789Z,101303.03
2022-08-11T00:55:09.650Z,101250.56
2022-08-11T01:00:14.494Z,101177.41
2022-08-11T01:05:51.729Z,101184.78
2022-08-11T01:11:08.217Z,101234.44
2022-08-11T01:16:48.070Z,101285.84
2022-08-11T01:22:35.410Z,101257.69
2022-08-11T01:28:18.760Z,101277.47
2022-08-11T01:33:49.506Z,101264.53
2022-08-11T01:39:18.677Z,101248.34
2022-08-11T01:44:45.694Z,101158.81
2022-08-11T01:50:08.813Z,101259.94
2022-08-11T01:55:24.698Z,101224.03
2022-08-11T02:00:31.324Z,101192.31
2022-08-11T02:06:27.977Z,101218.56
2022-08-11T02:11:35.211Z,101187.34
2022-08-11T02:17:01.139Z,101233.44
2022-08-11T02:22:24.510Z,101229.19
2022-08-11T02:27:33.407Z,101252.97
2022-08-11T02:32:59.609Z,101253.97
2022-08-11T02:38:12.380Z,101234.66
2022-08-11T02:43:41.612Z,101262.13
2022-08-11T02:49:25.351Z,101176.84
2022-08-11T02:54:34.519Z,101190.63
2022-08-11T02:59:50.313Z,101259.00
2022-08-11T03:05:07.785Z,101235.81
2022-08-11T03:10:10.460Z,101241.72
2022-08-11T03:15:34.269Z,101183.44
2022-08-11T03:20:39.183Z,101223.09
2022-08-11T03:25:46.850Z,101193.72
2022-08-11T03:30:54.733Z,101232.47
2022-08-11T03:36:05.818Z,101233.13
2022-08-11T03:42:02.591Z,101260.28
2022-08-11T03:47:13.340Z,101294.25
2022-08-11T03:52:23.403Z,101249.84
2022-08-11T03:57:54.437Z,101276.19
2022-08-11T04:03:40.341Z,101282.00
2022-08-11T04:09:09.895Z,101258.81
2022-08-11T04:14:48.408Z,101234.88
2022-08-11T04:20:16.478Z,101237.25
2022-08-11T04:25:58.007Z,101293.97
2022-08-11T04:31:07.192Z,101272.41
2022-08-11T04:36:42.007Z,101302.53
2022-08-11T04:42:34.745Z,101296.88
2022-08-11T04:48:27.234Z,101261.22
2022-08-11T04:54:00.974Z,101273.59
2022-08-11T04:59:51.570Z,101276.03
2022-08-11T05:05:22.024Z,101286.34
2022-08-11T05:10:26.503Z,101278.13
2022-08-11T05:15:52.830Z,101296.69
2022-08-11T05:21:11.493Z,101314.84
2022-08-11T05:26:47.745Z,101209.06
2022-08-11T05:32:30.702Z,101310.44
2022-08-11T05:37:38.931Z,101239.88
2022-08-11T05:43:02.361Z,101242.44
2022-08-11T05:48:19.285Z,101289.59
2022-08-11T05:53:45.752Z,101237.38
2022-08-11T05:58:46.981Z,101311.63
2022-08-11T06:04:10.015Z,101268.72
2022-08-11T06:09:07.451Z,101306.00
2022-08-11T06:14:05.889Z,101301.22
2022-08-11T06:19:26.093Z,101298.59
2022-08-11T06:24:28.607Z,101288.31
2022-08-11T06:29:54.513Z,101256.38
2022-08-11T06:35:25.279Z,101291.28
2022-08-11T06:40:36.277Z,101255.41
2022-08-11T06:45:47.269Z,101215.03
2022-08-11T06:51:08.194Z,101282.78
2022-08-11T06:57:18.625Z,101193.28
2022-08-11T07:02:21.751Z,101217.47
2022-08-11T07:08:35.176Z,101199.22
2022-08-11T07:13:49.820Z,101218.38
2022-08-11T07:19:06.407Z,101207.78
2022-08-11T07:24:59.307Z,101196.84
2022-08-11T07:30:04.284Z,101212.31
2022-08-11T07:35:12.713Z,101224.56
2022-08-11T07:40:11.899Z,101268.63
2022-08-11T07:45:28.822Z,101224.66
2022-08-11T07:50:44.834Z,101191.28
2022-08-11T07:55:53.626Z,101164.91
2022-08-11T08:01:21.977Z,101232.41
2022-08-11T08:06:39.692Z,101266.75
2022-08-11T08:12:02.925Z,101190.25
2022-08-11T08:17:17.867Z,101225.44
2022-08-11T08:22:38.470Z,101240.28
2022-08-11T08:27:55.760Z,101162.91
2022-08-11T08:32:55.236Z,101173.97
2022-08-11T08:37:53.256Z,101191.06
2022-08-11T08:43:07.905Z,101238.75
2022-08-11T08:48:11.935Z,101183.25
2022-08-11T08:53:09.344Z,101224.69
2022-08-11T08:58:25.384Z,101211.94
2022-08-11T09:03:41.801Z,101147.88
2022-08-11T09:14:05.151Z,101219.09
2022-08-11T09:19:05.015Z,101199.50
2022-08-11T09:24:29.377Z,101160.44
2022-08-11T10:35:26.450Z,101148.13
2022-08-11T10:41:21.709Z,101137.31
2022-08-11T10:46:40.950Z,101159.84
2022-08-11T10:52:01.361Z,101157.44
2022-08-11T10:57:27.836Z,101165.31
2022-08-11T11:02:35.835Z,101118.03
2022-08-11T11:07:40.245Z,101089.66
2022-08-11T11:13:07.921Z,101116.34
2022-08-11T11:24:58.747Z,101047.59
2022-08-11T11:30:47.841Z,101097.31
2022-08-11T11:36:26.001Z,101075.75
2022-08-11T11:42:01.181Z,101082.13
2022-08-11T11:47:39.242Z,101100.13
2022-08-11T11:53:06.004Z,101059.00
2022-08-11T11:58:31.854Z,101113.50
2022-08-11T12:09:34.882Z,101072.69
2022-08-11T12:14:36.386Z,101109.47
2022-08-11T12:19:41.503Z,101126.19
2022-08-11T12:26:10.253Z,101117.53
2022-08-11T12:30:29.898Z,101131.38
2022-08-11T12:35:32.911Z,101125.13
2022-08-11T12:41:15.550Z,101054.91
2022-08-11T12:46:20.235Z,101057.41
2022-08-11T12:52:13.614Z,101095.44
2022-08-11T12:57:36.716Z,101080.19
2022-08-11T13:02:54.130Z,101083.50
2022-08-11T13:08:06.787Z,101011.22
2022-08-11T13:13:55.313Z,101034.63
2022-08-11T13:18:29.970Z,101033.16
2022-08-11T13:23:29.186Z,101046.06
2022-08-11T13:28:34.482Z,101049.56
2022-08-11T13:33:37.078Z,101070.53
2022-08-11T13:38:44.495Z,101022.28
2022-08-11T13:43:45.952Z,101040.41
2022-08-11T13:48:51.372Z,101028.75
2022-08-11T13:54:08.929Z,101083.09
2022-08-11T13:59:08.020Z,101068.94
2022-08-11T14:04:31.085Z,101078.75
2022-08-11T14:09:32.410Z,101042.25
2022-08-11T14:14:35.357Z,101076.13
2022-08-11T14:20:38.501Z,101030.81
2022-08-11T14:26:03.357Z,101047.84
2022-08-11T14:32:03.232Z,101079.28
2022-08-11T14:37:11.545Z,101048.34
2022-08-11T14:42:28.721Z,101051.16
2022-08-11T14:47:30.368Z,100998.84
2022-08-11T14:52:31.879Z,101020.59
2022-08-11T14:57:59.200Z,101065.97
2022-08-11T15:03:17.005Z,101021.34
2022-08-11T15:08:49.946Z,101014.38
2022-08-11T15:14:16.480Z,100983.03
2022-08-11T15:19:16.570Z,101003.38
2022-08-11T15:24:24.127Z,101021.16
2022-08-11T15:29:54.328Z,101050.00
2022-08-11T15:35:14.250Z,101024.50
2022-08-11T15:40:46.290Z,101035.81
2022-08-11T15:45:51.997Z,100973.88
2022-08-11T15:51:08.899Z,100942.72
2022-08-11T15:56:55.940Z,100962.59
2022-08-11T16:02:16.094Z,100958.13
2022-08-11T16:07:39.115Z,100985.50
2022-08-11T16:13:15.187Z,101015.41
2022-08-11T16:18:15.346Z,100995.56
2022-08-11T16:23:37.969Z,100975.44
2022-08-11T16:29:33.196Z,100961.06
2022-08-11T16:35:34.054Z,100937.91
2022-08-11T16:40:45.602Z,100964.22
2022-08-11T16:46:05.975Z,100980.91
2022-08-11T16:51:35.370Z,100935.31
2022-08-11T16:56:39.167Z,101025.00
2022-08-11T17:01:37.514Z,100969.75
2022-08-11T17:07:01.006Z,100943.88
2022-08-11T17:17:39.814Z,100987.09
2022-08-11T17:22:59.198Z,101049.00
2022-08-11T17:27:57.124Z,101029.03
2022-08-11T17:33:31.058Z,101055.28
2022-08-11T17:38:46.777Z,101001.72
2022-08-11T17:44:16.760Z,101043.09
2022-08-11T17:49:31.283Z,100998.63
2022-08-11T17:54:49.642Z,101074.59
2022-08-11T17:59:54.831Z,101059.47
2022-08-11T18:04:54.518Z,101086.22
2022-08-11T18:11:03.252Z,101005.69
2022-08-11T18:16:28.607Z,101067.78
2022-08-11T18:21:46.464Z,101058.75
2022-08-11T18:27:51.790Z,101083.63
2022-08-11T18:39:42.586Z,101067.47
2022-08-11T18:46:14.071Z,101037.72
2022-08-11T18:51:36.855Z,101108.78
2022-08-11T18:56:53.913Z,101070.94
2022-08-11T19:02:11.870Z,101126.41
2022-08-11T19:07:40.824Z,101114.25
2022-08-11T19:19:59.011Z,101093.38
2022-08-11T19:26:10.517Z,101146.94
2022-08-11T19:38:28.774Z,101163.69
2022-08-11T19:44:11.448Z,101168.91
2022-08-11T19:49:37.400Z,101161.34
2022-08-11T19:55:08.047Z,101159.69
2022-08-11T20:06:36.493Z,101160.34
2022-08-11T20:13:55.162Z,101145.56
2022-08-11T20:18:34.207Z,101158.03
2022-08-11T20:24:10.697Z,101129.88
2022-08-11T20:35:30.055Z,101112.91
2022-08-11T20:41:02.210Z,101145.38
2022-08-11T20:46:28.184Z,101197.94
2022-08-11T20:51:43.949Z,101167.13
2022-08-11T20:57:04.032Z,101090.69
2022-08-11T21:02:36.146Z,101175.56
2022-08-11T21:07:56.770Z,101161.59
2022-08-11T21:13:26.828Z,101183.97
2022-08-11T21:18:47.454Z,101217.47
2022-08-11T21:24:03.593Z,101205.19
2022-08-11T21:29:25.072Z,101225.22
2022-08-11T21:34:41.812Z,101178.53
2022-08-11T21:40:00.818Z,101196.88
2022-08-11T21:45:23.187Z,101205.81
2022-08-11T21:50:38.266Z,101142.13
2022-08-11T21:56:04.482Z,101139.41
2022-08-11T22:01:21.055Z,101162.47
2022-08-11T22:12:34.275Z,101235.41
2022-08-11T22:18:07.158Z,101208.75
2022-08-11T22:23:23.041Z,101130.88
2022-08-11T22:28:38.273Z,101185.63
2022-08-11T22:34:02.285Z,101215.44
2022-08-11T22:39:18.513Z,101221.16
2022-08-11T22:44:33.914Z,101227.34
2022-08-11T22:49:57.509Z,101143.53
2022-08-11T22:55:14.634Z,101181.28
2022-08-11T23:00:41.918Z,101224.81
2022-08-11T23:05:58.787Z,101220.03
2022-08-11T23:11:14.946Z,101204.97
2022-08-11T23:16:46.013Z,101210.00
2022-08-11T23:22:17.795Z,101218.22
2022-08-11T23:27:43.131Z,101163.19
2022-08-11T23:33:03.165Z,101177.50
2022-08-11T23:38:41.238Z,101118.59
2022-08-11T23:43:57.095Z,101169.97
2022-08-11T23:49:17.008Z,101125.59
2022-08-11T23:54:37.387Z,101180.94
2022-08-11T23:59:53.259Z,101193.91
